createdAt,value
2019-02-25T00:01:34.283Z,3.20
2019-02-25T00:03:54.572Z,3.20
2019-02-25T00:06:15.830Z,3.30
2019-02-25T00:08:36.154Z,3.20
2019-02-25T00:10:57.383Z,3.20
2019-02-25T00:13:17.736Z,3.10
2019-02-25T00:15:37.982Z,3.10
2019-02-25T00:17:58.435Z,3.10
2019-02-25T00:20:18.719Z,3.20
2019-02-25T00:22:39.001Z,3.10
2019-02-25T00:24:59.346Z,3.20
2019-02-25T00:27:19.602Z,3.10
2019-02-25T00:29:39.873Z,3.20
2019-02-25T00:32:00.118Z,3.20
2019-02-25T00:34:20.410Z,3.20
2019-02-25T00:36:40.672Z,3.20
2019-02-25T00:39:00.957Z,3.10
2019-02-25T00:41:22.918Z,3.10
2019-02-25T00:43:43.190Z,3.10
2019-02-25T00:46:03.493Z,3.10
2019-02-25T00:48:23.764Z,3.10
2019-02-25T00:50:44.099Z,3.00
2019-02-25T00:53:04.401Z,3.00
2019-02-25T00:55:24.786Z,3.10
2019-02-25T00:57:45.043Z,3.10
2019-02-25T01:00:08.561Z,3.00
2019-02-25T01:02:28.844Z,3.10
2019-02-25T01:04:49.111Z,3.00
2019-02-25T01:07:09.426Z,3.00
2019-02-25T01:09:29.731Z,3.00
2019-02-25T01:11:49.978Z,3.00
2019-02-25T01:14:10.254Z,3.10
2019-02-25T01:16:30.524Z,3.00
2019-02-25T01:18:50.783Z,3.10
2019-02-25T01:21:11.106Z,3.10
2019-02-25T01:23:31.435Z,3.10
2019-02-25T01:25:51.698Z,3.10
2019-02-25T01:28:12.134Z,3.10
2019-02-25T01:30:32.532Z,3.10
2019-02-25T01:32:52.823Z,3.20
2019-02-25T01:35:13.536Z,3.10
2019-02-25T01:37:34.906Z,3.00
2019-02-25T01:39:55.292Z,3.10
2019-02-25T01:42:15.614Z,3.10
2019-02-25T01:44:35.902Z,3.10
2019-02-25T01:46:56.170Z,3.10
2019-02-25T01:49:16.486Z,3.10
2019-02-25T01:51:36.778Z,3.10
2019-02-25T01:53:57.117Z,3.00
2019-02-25T01:56:17.475Z,3.00
2019-02-25T01:58:37.767Z,3.00
2019-02-25T02:00:58.115Z,3.00
2019-02-25T02:03:18.442Z,2.90
2019-02-25T02:05:38.727Z,2.80
2019-02-25T02:07:59.024Z,2.90
2019-02-25T02:10:19.308Z,2.90
2019-02-25T02:12:39.721Z,3.00
2019-02-25T02:15:00.017Z,3.00
2019-02-25T02:17:20.273Z,3.00
2019-02-25T02:19:40.535Z,3.00
2019-02-25T02:22:00.820Z,3.00
2019-02-25T02:24:21.153Z,3.00
2019-02-25T02:26:41.423Z,3.00
2019-02-25T02:29:02.645Z,3.00
2019-02-25T02:31:22.902Z,3.00
2019-02-25T02:33:43.190Z,3.00
2019-02-25T02:36:03.480Z,3.00
2019-02-25T02:38:23.735Z,3.00
2019-02-25T02:40:44.048Z,3.00
2019-02-25T02:43:04.310Z,3.10
2019-02-25T02:45:46.261Z,3.10
2019-02-25T02:48:12.759Z,3.10
2019-02-25T02:50:33.033Z,3.20
2019-02-25T02:52:53.319Z,3.10
2019-02-25T02:55:13.648Z,3.10
2019-02-25T02:57:33.936Z,3.10
2019-02-25T02:59:54.218Z,3.10
2019-02-25T03:02:14.482Z,3.10
2019-02-25T03:04:34.761Z,3.00
2019-02-25T03:06:55.036Z,3.00
2019-02-25T03:09:15.365Z,3.00
2019-02-25T03:11:35.639Z,3.10
2019-02-25T03:13:55.938Z,3.10
2019-02-25T03:16:16.188Z,3.10
2019-02-25T03:18:36.506Z,3.10
2019-02-25T03:20:57.113Z,3.10
2019-02-25T03:23:17.381Z,3.10
2019-02-25T03:25:37.641Z,3.20
2019-02-25T03:27:57.917Z,3.20
2019-02-25T03:30:21.671Z,3.20
2019-02-25T03:32:41.999Z,3.20
2019-02-25T03:35:02.311Z,3.20
2019-02-25T03:37:22.588Z,3.30
2019-02-25T03:39:43.039Z,3.30
2019-02-25T03:42:03.408Z,3.30
2019-02-25T03:44:23.739Z,3.30
2019-02-25T03:46:44.091Z,3.30
2019-02-25T03:49:04.409Z,3.30
2019-02-25T03:51:24.667Z,3.30
2019-02-25T03:53:45.018Z,3.30
2019-02-25T03:56:05.359Z,3.20
2019-02-25T03:58:25.705Z,3.20
2019-02-25T04:00:45.953Z,3.20
2019-02-25T04:03:06.219Z,3.20
2019-02-25T04:05:26.932Z,3.10
2019-02-25T04:07:47.250Z,3.10
2019-02-25T04:10:09.806Z,3.10
2019-02-25T04:12:29.805Z,3.00
2019-02-25T04:14:50.154Z,3.00
2019-02-25T04:17:10.406Z,2.90
2019-02-25T04:19:30.695Z,3.00
2019-02-25T04:21:51.004Z,3.10
2019-02-25T04:24:11.352Z,3.10
2019-02-25T04:26:31.621Z,3.10
2019-02-25T04:28:51.878Z,3.10
2019-02-25T04:31:12.186Z,3.10
2019-02-25T04:33:32.494Z,3.10
2019-02-25T04:35:53.579Z,3.10
2019-02-25T04:38:14.125Z,3.10
2019-02-25T04:40:34.838Z,3.20
2019-02-25T04:42:55.163Z,3.10
2019-02-25T04:45:17.503Z,3.20
2019-02-25T04:47:37.553Z,3.30
2019-02-25T04:49:58.811Z,3.20
2019-02-25T04:52:19.210Z,3.20
2019-02-25T04:54:39.545Z,3.20
2019-02-25T04:56:59.915Z,3.20
2019-02-25T04:59:20.289Z,3.10
2019-02-25T05:01:40.558Z,3.10
2019-02-25T05:04:00.842Z,3.00
2019-02-25T05:06:21.170Z,3.00
2019-02-25T05:08:41.772Z,2.80
2019-02-25T05:11:02.076Z,2.70
2019-02-25T05:13:22.423Z,2.60
2019-02-25T05:15:42.778Z,2.40
2019-02-25T05:18:03.028Z,2.30
2019-02-25T05:20:24.298Z,2.20
2019-02-25T05:22:44.554Z,2.10
2019-02-25T05:25:07.537Z,2.00
2019-02-25T05:27:27.520Z,1.90
2019-02-25T05:29:48.112Z,1.90
2019-02-25T05:32:08.476Z,1.90
2019-02-25T05:34:28.734Z,1.80
2019-02-25T05:36:48.984Z,1.80
2019-02-25T05:39:09.252Z,1.60
2019-02-25T05:41:29.718Z,1.70
2019-02-25T05:43:49.966Z,1.80
2019-02-25T05:46:10.242Z,1.90
2019-02-25T05:48:30.580Z,2.10
2019-02-25T05:50:50.909Z,2.20
2019-02-25T05:53:11.192Z,2.20
2019-02-25T05:55:31.511Z,2.30
2019-02-25T05:57:51.770Z,2.40
2019-02-25T06:00:16.820Z,2.50
2019-02-25T06:02:37.113Z,2.60
2019-02-25T06:04:57.425Z,2.60
2019-02-25T06:07:17.682Z,2.70
2019-02-25T06:09:38.083Z,2.80
2019-02-25T06:11:58.392Z,2.90
2019-02-25T06:14:18.770Z,2.80
2019-02-25T06:16:39.030Z,2.90
2019-02-25T06:18:59.382Z,2.80
2019-02-25T06:21:19.661Z,2.70
2019-02-25T06:23:40.963Z,2.60
2019-02-25T06:26:01.375Z,2.60
2019-02-25T06:28:21.685Z,2.60
2019-02-25T06:30:42.006Z,2.70
2019-02-25T06:33:02.379Z,2.80
2019-02-25T06:35:22.741Z,2.80
2019-02-25T06:37:43.130Z,2.90
2019-02-25T06:40:03.524Z,3.20
2019-02-25T06:42:23.785Z,3.70
2019-02-25T06:44:44.244Z,4.10
2019-02-25T06:47:04.528Z,4.30
2019-02-25T06:49:24.894Z,4.10
2019-02-25T06:51:45.242Z,3.90
2019-02-25T06:54:05.588Z,3.90
2019-02-25T06:56:25.877Z,3.80
2019-02-25T06:58:46.144Z,3.80
2019-02-25T07:01:06.417Z,3.80
2019-02-25T07:03:26.994Z,3.80
2019-02-25T07:05:51.786Z,3.80
2019-02-25T07:08:13.709Z,3.80
2019-02-25T07:10:41.568Z,3.90
2019-02-25T07:13:06.272Z,4.00
2019-02-25T07:15:28.296Z,4.00
2019-02-25T07:17:50.301Z,4.00
2019-02-25T07:20:12.253Z,4.10
2019-02-25T07:22:36.971Z,4.20
2019-02-25T07:24:59.002Z,4.20
2019-02-25T07:27:21.599Z,4.40
2019-02-25T07:29:59.542Z,4.40
2019-02-25T07:32:24.406Z,4.60
2019-02-25T07:34:46.328Z,4.70
2019-02-25T07:37:14.258Z,5.00
2019-02-25T07:39:52.263Z,5.20
2019-02-25T07:42:17.193Z,5.20
2019-02-25T07:44:48.522Z,5.40
2019-02-25T07:47:10.495Z,5.50
2019-02-25T07:49:47.506Z,5.50
2019-02-25T07:52:21.661Z,5.60
2019-02-25T07:54:58.530Z,5.70
2019-02-25T07:57:38.939Z,6.00
2019-02-25T08:00:03.659Z,6.20
2019-02-25T08:02:27.095Z,6.40
2019-02-25T08:04:49.058Z,6.40
2019-02-25T08:07:28.905Z,6.30
2019-02-25T08:09:53.774Z,6.40
2019-02-25T08:12:32.122Z,6.50
2019-02-25T08:15:00.048Z,6.50
2019-02-25T08:17:37.010Z,6.50
2019-02-25T08:20:08.010Z,6.40
2019-02-25T08:22:41.620Z,6.40
2019-02-25T08:25:11.120Z,6.40
2019-02-25T08:27:32.289Z,6.50
2019-02-25T08:29:57.262Z,6.60
2019-02-25T08:32:26.400Z,6.60
2019-02-25T08:35:05.587Z,6.60
2019-02-25T08:37:33.334Z,6.70
2019-02-25T08:40:38.932Z,6.90
2019-02-25T08:43:06.253Z,7.20
2019-02-25T08:45:37.240Z,7.40
2019-02-25T08:47:59.136Z,7.60
2019-02-25T08:50:19.473Z,7.90
2019-02-25T08:52:39.762Z,7.70
2019-02-25T08:55:00.321Z,7.80
2019-02-25T08:57:20.822Z,8.00
2019-02-25T08:59:41.527Z,8.20
2019-02-25T09:02:02.020Z,8.20
2019-02-25T09:04:22.555Z,8.30
2019-02-25T09:06:42.841Z,8.60
2019-02-25T09:09:04.083Z,8.50
2019-02-25T09:11:25.553Z,8.90
2019-02-25T09:13:45.940Z,8.90
2019-02-25T09:16:06.272Z,8.60
2019-02-25T09:18:26.534Z,8.80
2019-02-25T09:20:47.891Z,9.40
2019-02-25T09:23:08.262Z,9.50
2019-02-25T09:25:28.575Z,9.40
2019-02-25T09:27:48.962Z,9.20
2019-02-25T09:30:12.391Z,9.00
2019-02-25T09:32:34.055Z,8.90
2019-02-25T09:34:54.313Z,8.90
2019-02-25T09:37:14.577Z,9.10
2019-02-25T09:39:35.019Z,9.20
2019-02-25T09:41:56.587Z,9.20
2019-02-25T09:44:16.866Z,9.30
2019-02-25T09:46:37.217Z,9.60
2019-02-25T09:48:57.633Z,9.50
2019-02-25T09:51:17.960Z,9.40
2019-02-25T09:53:38.336Z,9.50
2019-02-25T09:55:58.753Z,9.40
2019-02-25T09:58:19.040Z,9.30
2019-02-25T10:00:39.349Z,9.40
2019-02-25T10:02:59.685Z,9.30
2019-02-25T10:05:20.045Z,9.40
2019-02-25T10:07:41.490Z,9.40
2019-02-25T10:10:01.810Z,9.40
2019-02-25T10:12:22.166Z,9.60
2019-02-25T10:14:42.550Z,9.90
2019-02-25T10:17:02.914Z,10.40
2019-02-25T10:19:23.182Z,10.90
2019-02-25T10:21:43.483Z,11.40
2019-02-25T10:24:03.918Z,10.80
2019-02-25T10:26:24.201Z,10.80
2019-02-25T10:28:44.011Z,12.00
2019-02-25T10:31:03.754Z,13.10
2019-02-25T10:33:24.093Z,13.30
2019-02-25T10:35:44.403Z,12.80
2019-02-25T10:38:06.576Z,12.50
2019-02-25T10:40:27.567Z,11.80
2019-02-25T10:42:47.965Z,12.60
2019-02-25T10:45:13.053Z,13.10
2019-02-25T10:47:32.443Z,13.00
2019-02-25T10:49:52.148Z,12.40
2019-02-25T10:52:13.351Z,11.50
2019-02-25T10:54:34.037Z,11.10
2019-02-25T10:56:55.855Z,11.00
2019-02-25T10:59:16.257Z,11.00
2019-02-25T11:01:37.531Z,10.70
2019-02-25T11:03:58.076Z,10.60
2019-02-25T11:06:18.436Z,10.30
2019-02-25T11:08:41.488Z,10.30
2019-02-25T11:11:07.044Z,10.50
2019-02-25T11:13:27.628Z,10.60
2019-02-25T11:15:49.379Z,10.70
2019-02-25T11:18:10.736Z,10.40
2019-02-25T11:20:31.844Z,10.30
2019-02-25T11:22:54.889Z,10.30
2019-02-25T11:25:15.669Z,10.40
2019-02-25T11:27:37.722Z,10.50
2019-02-25T11:29:59.713Z,10.50
2019-02-25T11:32:25.821Z,10.70
2019-02-25T11:34:46.312Z,10.60
2019-02-25T11:37:06.584Z,10.60
2019-02-25T11:39:27.575Z,10.70
2019-02-25T11:41:48.867Z,10.80
2019-02-25T11:44:09.255Z,11.00
2019-02-25T11:46:29.651Z,11.50
2019-02-25T11:48:50.032Z,12.40
2019-02-25T11:51:09.829Z,12.90
2019-02-25T11:53:29.552Z,12.70
2019-02-25T11:55:49.962Z,14.10
2019-02-25T11:58:09.663Z,15.10
2019-02-25T12:00:29.975Z,15.20
2019-02-25T12:02:50.068Z,15.50
2019-02-25T12:05:10.775Z,16.10
2019-02-25T12:07:30.861Z,16.90
2019-02-25T12:09:50.967Z,18.00
2019-02-25T12:12:11.034Z,18.40
2019-02-25T12:14:32.187Z,18.60
2019-02-25T12:16:52.278Z,18.70
2019-02-25T12:19:17.959Z,19.10
2019-02-25T12:21:34.177Z,18.80
2019-02-25T12:23:54.295Z,17.90
2019-02-25T12:26:14.366Z,17.70
2019-02-25T12:28:34.461Z,18.70
2019-02-25T12:30:54.660Z,18.80
2019-02-25T12:33:14.730Z,18.30
2019-02-25T12:35:34.832Z,19.30
2019-02-25T12:37:54.956Z,19.00
2019-02-25T12:40:18.337Z,18.80
2019-02-25T12:42:38.329Z,17.40
2019-02-25T12:44:58.758Z,16.50
2019-02-25T12:47:18.867Z,15.90
2019-02-25T12:49:38.962Z,15.80
2019-02-25T12:52:02.915Z,15.30
2019-02-25T12:54:22.737Z,14.40
2019-02-25T12:56:42.880Z,16.30
2019-02-25T12:59:05.090Z,15.30
2019-02-25T13:01:24.574Z,15.20
2019-02-25T13:03:44.612Z,15.60
2019-02-25T13:06:04.701Z,16.60
2019-02-25T13:08:24.778Z,16.60
2019-02-25T13:10:44.975Z,15.50
2019-02-25T13:13:05.078Z,15.40
2019-02-25T13:15:25.158Z,16.30
2019-02-25T13:17:45.238Z,16.00
2019-02-25T13:20:08.496Z,15.70
2019-02-25T13:22:28.545Z,17.40
2019-02-25T13:24:48.618Z,17.90
2019-02-25T13:27:11.059Z,18.30
2019-02-25T13:29:31.858Z,19.60
2019-02-25T13:31:52.424Z,20.60
2019-02-25T13:34:12.941Z,19.80
2019-02-25T13:36:33.406Z,20.20
2019-02-25T13:38:53.461Z,19.10
2019-02-25T13:41:13.645Z,18.60
2019-02-25T13:43:34.177Z,16.70
2019-02-25T13:45:54.669Z,19.30
2019-02-25T13:48:15.016Z,21.40
2019-02-25T13:50:35.322Z,22.60
2019-02-25T13:52:55.599Z,22.60
2019-02-25T13:55:20.663Z,21.80
2019-02-25T13:57:41.270Z,21.50
2019-02-25T14:00:01.698Z,22.10
2019-02-25T14:02:22.028Z,20.20
2019-02-25T14:04:42.495Z,20.20
2019-02-25T14:07:02.842Z,20.30
2019-02-25T14:09:23.153Z,18.90
2019-02-25T14:11:44.435Z,17.70
2019-02-25T14:14:05.508Z,18.60
2019-02-25T14:16:26.640Z,20.00
2019-02-25T14:18:46.889Z,20.20
2019-02-25T14:21:07.396Z,17.50
2019-02-25T14:23:27.791Z,19.60
2019-02-25T14:25:48.858Z,17.10
2019-02-25T14:28:09.229Z,15.90
2019-02-25T14:30:32.690Z,15.80
2019-02-25T14:32:53.421Z,18.30
2019-02-25T14:35:13.907Z,19.40
2019-02-25T14:37:34.364Z,19.00
2019-02-25T14:39:56.321Z,18.00
2019-02-25T14:42:18.893Z,18.60
2019-02-25T14:44:41.276Z,18.20
2019-02-25T14:47:02.954Z,18.00
2019-02-25T14:49:23.044Z,17.30
2019-02-25T14:51:43.313Z,16.40
2019-02-25T14:54:03.670Z,15.30
2019-02-25T14:56:24.291Z,15.30
2019-02-25T14:58:45.601Z,15.00
2019-02-25T15:01:06.931Z,14.40
2019-02-25T15:03:28.747Z,14.30
2019-02-25T15:05:50.228Z,14.30
2019-02-25T15:08:11.801Z,14.00
2019-02-25T15:10:33.953Z,13.90
2019-02-25T15:12:58.533Z,13.70
2019-02-25T15:15:18.573Z,13.60
2019-02-25T15:17:38.871Z,13.40
2019-02-25T15:19:59.487Z,13.30
2019-02-25T15:22:19.552Z,12.90
2019-02-25T15:24:44.136Z,12.70
2019-02-25T15:27:04.375Z,12.30
2019-02-25T15:29:24.080Z,12.30
2019-02-25T15:31:46.304Z,12.30
2019-02-25T15:34:06.950Z,12.30
2019-02-25T15:36:29.071Z,12.30
2019-02-25T15:38:50.014Z,12.30
2019-02-25T15:41:11.271Z,12.30
2019-02-25T15:43:31.994Z,12.20
2019-02-25T15:45:52.722Z,12.20
2019-02-25T15:48:15.731Z,12.30
2019-02-25T15:50:36.104Z,12.20
2019-02-25T15:53:00.768Z,12.10
2019-02-25T15:55:21.166Z,12.10
2019-02-25T15:57:42.532Z,12.00
2019-02-25T16:00:03.524Z,11.90
2019-02-25T16:02:24.166Z,11.80
2019-02-25T16:04:44.893Z,11.80
2019-02-25T16:07:10.432Z,11.70
2019-02-25T16:09:31.572Z,11.60
2019-02-25T16:11:53.429Z,11.50
2019-02-25T16:14:14.049Z,11.50
2019-02-25T16:16:34.695Z,11.50
2019-02-25T16:18:55.404Z,11.40
2019-02-25T16:21:16.125Z,11.30
2019-02-25T16:23:40.591Z,11.20
2019-02-25T16:26:01.532Z,11.20
2019-02-25T16:28:22.074Z,11.10
2019-02-25T16:30:44.437Z,11.00
2019-02-25T16:33:07.274Z,10.90
2019-02-25T16:35:27.215Z,10.80
2019-02-25T16:37:50.855Z,10.70
2019-02-25T16:40:19.437Z,10.60
2019-02-25T16:42:41.399Z,10.40
2019-02-25T16:45:06.993Z,10.40
2019-02-25T16:47:32.866Z,10.30
2019-02-25T16:49:50.352Z,10.20
2019-02-25T16:52:11.660Z,10.00
2019-02-25T16:54:32.239Z,10.00
2019-02-25T16:56:55.831Z,9.80
2019-02-25T16:59:18.495Z,9.70
2019-02-25T17:01:39.751Z,9.70
2019-02-25T17:04:00.886Z,9.60
2019-02-25T17:06:21.685Z,9.60
2019-02-25T17:08:42.285Z,9.40
2019-02-25T17:11:02.857Z,9.20
2019-02-25T17:13:23.409Z,9.10
2019-02-25T17:15:46.232Z,9.00
2019-02-25T17:18:06.723Z,9.00
2019-02-25T17:20:28.162Z,8.90
2019-02-25T17:22:49.931Z,8.90
2019-02-25T17:25:12.478Z,8.80
2019-02-25T17:27:32.817Z,8.70
2019-02-25T17:29:55.402Z,8.70
2019-02-25T17:32:16.767Z,8.60
2019-02-25T17:34:40.006Z,8.40
2019-02-25T17:37:01.565Z,8.30
2019-02-25T17:39:22.356Z,8.10
2019-02-25T17:41:44.447Z,8.10
2019-02-25T17:44:05.662Z,8.00
2019-02-25T17:46:28.770Z,7.80
2019-02-25T17:48:49.388Z,7.70
2019-02-25T17:51:10.120Z,7.70
2019-02-25T17:53:32.841Z,7.70
2019-02-25T17:55:53.816Z,7.70
2019-02-25T17:58:16.950Z,7.70
2019-02-25T18:00:42.563Z,7.60
2019-02-25T18:03:03.714Z,7.40
2019-02-25T18:05:24.492Z,7.30
2019-02-25T18:07:46.523Z,7.20
2019-02-25T18:10:10.720Z,7.20
2019-02-25T18:12:31.817Z,7.10
2019-02-25T18:14:54.772Z,7.00
2019-02-25T18:17:19.239Z,7.00
2019-02-25T18:19:41.730Z,7.00
2019-02-25T18:22:02.615Z,6.90
2019-02-25T18:24:26.766Z,6.80
2019-02-25T18:26:46.941Z,6.70
2019-02-25T18:29:09.303Z,6.70
2019-02-25T18:31:30.589Z,6.50
2019-02-25T18:33:52.936Z,6.40
2019-02-25T18:36:13.733Z,6.50
2019-02-25T18:38:34.380Z,6.40
2019-02-25T18:40:55.308Z,6.30
2019-02-25T18:43:16.006Z,6.30
2019-02-25T18:45:38.474Z,6.30
2019-02-25T18:47:58.513Z,6.20
2019-02-25T18:50:21.795Z,6.10
2019-02-25T18:52:44.751Z,6.10
2019-02-25T18:55:08.832Z,6.00
2019-02-25T18:57:29.584Z,5.90
2019-02-25T18:59:50.387Z,5.80
2019-02-25T19:02:12.820Z,5.70
2019-02-25T19:04:34.534Z,5.70
2019-02-25T19:06:54.624Z,5.70
2019-02-25T19:09:18.243Z,5.60
2019-02-25T19:11:40.445Z,5.50
2019-02-25T19:14:03.665Z,5.50
2019-02-25T19:16:24.676Z,5.50
2019-02-25T19:18:46.822Z,5.50
2019-02-25T19:21:09.227Z,5.40
2019-02-25T19:23:32.781Z,5.40
2019-02-25T19:25:52.136Z,5.30
2019-02-25T19:28:18.638Z,5.40
2019-02-25T19:30:37.180Z,5.40
2019-02-25T19:32:57.870Z,5.40
2019-02-25T19:35:18.854Z,5.30
2019-02-25T19:37:40.623Z,5.30
2019-02-25T19:40:05.311Z,5.20
2019-02-25T19:42:25.187Z,5.10
2019-02-25T19:44:46.328Z,5.00
2019-02-25T19:47:07.919Z,4.90
2019-02-25T19:49:28.540Z,4.80
2019-02-25T19:51:50.719Z,4.80
2019-02-25T19:54:13.435Z,4.80
2019-02-25T19:56:33.572Z,4.70
2019-02-25T19:58:54.450Z,4.70
2019-02-25T20:01:15.901Z,4.70
2019-02-25T20:03:37.575Z,4.60
2019-02-25T20:05:58.453Z,4.50
2019-02-25T20:08:19.086Z,4.50
2019-02-25T20:10:39.690Z,4.40
2019-02-25T20:13:00.352Z,4.30
2019-02-25T20:15:25.063Z,4.20
2019-02-25T20:17:48.843Z,4.20
2019-02-25T20:20:12.866Z,4.20
2019-02-25T20:22:36.635Z,4.20
2019-02-25T20:24:57.805Z,4.20
2019-02-25T20:27:18.489Z,4.20
2019-02-25T20:29:40.004Z,4.20
2019-02-25T20:32:01.310Z,4.20
2019-02-25T20:34:25.903Z,4.10
2019-02-25T20:36:48.326Z,4.00
2019-02-25T20:39:11.568Z,4.00
2019-02-25T20:41:32.168Z,4.10
2019-02-25T20:43:55.962Z,4.00
2019-02-25T20:46:14.548Z,4.10
2019-02-25T20:48:35.182Z,4.10
2019-02-25T20:50:55.757Z,4.00
2019-02-25T20:53:19.273Z,4.00
2019-02-25T20:55:38.727Z,4.00
2019-02-25T20:57:58.743Z,4.00
2019-02-25T21:00:24.387Z,4.00
2019-02-25T21:02:45.097Z,3.90
2019-02-25T21:05:09.742Z,3.90
2019-02-25T21:07:31.743Z,3.90
2019-02-25T21:09:51.736Z,3.90
2019-02-25T21:12:13.187Z,4.00
2019-02-25T21:14:35.651Z,4.00
2019-02-25T21:16:56.422Z,4.10
2019-02-25T21:19:19.679Z,4.20
2019-02-25T21:21:39.574Z,4.20
2019-02-25T21:24:01.918Z,4.10
2019-02-25T21:26:27.382Z,3.90
2019-02-25T21:28:46.462Z,3.90
2019-02-25T21:31:10.979Z,3.80
2019-02-25T21:33:30.353Z,3.80
2019-02-25T21:35:50.989Z,3.70
2019-02-25T21:38:12.683Z,3.90
2019-02-25T21:40:33.240Z,3.90
2019-02-25T21:42:56.676Z,4.10
2019-02-25T21:45:20.022Z,4.10
2019-02-25T21:47:39.608Z,4.10
2019-02-25T21:50:01.279Z,4.10
2019-02-25T21:52:23.771Z,4.00
2019-02-25T21:54:45.024Z,4.00
2019-02-25T21:57:09.758Z,3.90
2019-02-25T21:59:32.375Z,3.80
2019-02-25T22:01:55.231Z,3.90
2019-02-25T22:04:15.526Z,3.90
2019-02-25T22:06:36.919Z,3.90
2019-02-25T22:08:58.644Z,4.10
2019-02-25T22:11:22.170Z,4.20
2019-02-25T22:13:42.299Z,4.40
2019-02-25T22:16:03.557Z,4.40
2019-02-25T22:18:26.146Z,4.40
2019-02-25T22:20:47.687Z,4.40
2019-02-25T22:23:09.017Z,4.30
2019-02-25T22:25:29.606Z,4.30
2019-02-25T22:27:50.387Z,4.30
2019-02-25T22:30:15.943Z,4.30
2019-02-25T22:32:38.222Z,4.30
2019-02-25T22:35:00.553Z,4.30
2019-02-25T22:37:22.735Z,4.30
2019-02-25T22:39:46.605Z,4.30
2019-02-25T22:42:09.617Z,4.30
2019-02-25T22:44:31.771Z,4.40
2019-02-25T22:46:52.328Z,4.30
2019-02-25T22:49:12.894Z,4.30
2019-02-25T22:51:35.813Z,4.30
2019-02-25T22:53:56.862Z,4.20
2019-02-25T22:56:18.398Z,4.10
2019-02-25T22:58:40.798Z,4.20
2019-02-25T23:01:04.689Z,4.20
2019-02-25T23:03:27.668Z,4.20
2019-02-25T23:05:50.338Z,4.20
2019-02-25T23:08:13.118Z,4.20
2019-02-25T23:10:33.518Z,4.30
2019-02-25T23:12:54.141Z,4.30
2019-02-25T23:15:15.024Z,4.40
2019-02-25T23:17:37.503Z,4.40
2019-02-25T23:19:59.973Z,4.30
2019-02-25T23:22:19.695Z,4.40
2019-02-25T23:24:43.404Z,4.40
2019-02-25T23:27:02.416Z,4.40
2019-02-25T23:29:27.850Z,4.40
2019-02-25T23:31:46.458Z,4.50
2019-02-25T23:34:07.990Z,4.50
2019-02-25T23:36:28.439Z,4.50
2019-02-25T23:38:50.666Z,4.60
2019-02-25T23:41:12.810Z,4.60
2019-02-25T23:43:37.786Z,4.60
2019-02-25T23:45:58.079Z,4.70
2019-02-25T23:48:19.356Z,4.70
2019-02-25T23:50:39.871Z,4.70
2019-02-25T23:53:00.397Z,4.80
2019-02-25T23:55:23.869Z,4.80
2019-02-25T23:57:42.821Z,4.80
